Time;durP1;ratioP1;P1;durP2;ratioP2;P2;SDS_P1;SDS_P2;PMS_P1;PMS_P2;Temp;Humidity;BMP_temperature;BMP_pressure;BME280_temperature;BME280_humidity;BME280_pressure;Samples;Min_cycle;Max_cycle;Signal;HPM_P1;HPM_P2
2021/01/12 00:01:43;;;;;;;12.77;9.80;;;5.50;99.90;;;;;;5031577;28;21126;-73
2021/01/12 00:04:09;;;;;;;11.47;9.10;;;5.60;99.90;;;;;;5034712;28;20468;-73
2021/01/12 00:06:35;;;;;;;13.47;10.03;;;5.50;99.90;;;;;;5034771;28;20492;-74
2021/01/12 00:09:02;;;;;;;13.33;10.80;;;5.60;99.90;;;;;;5034047;28;20938;-74
2021/01/12 00:11:28;;;;;;;11.60;9.83;;;5.60;99.90;;;;;;5034648;28;20947;-74
2021/01/12 00:13:54;;;;;;;11.87;10.60;;;5.60;99.90;;;;;;5032188;28;20446;-73
2021/01/12 00:16:20;;;;;;;13.33;9.87;;;5.60;99.90;;;;;;5031793;28;20410;-73
2021/01/12 00:18:47;;;;;;;15.90;10.70;;;5.60;99.90;;;;;;5025103;28;20187;-73
2021/01/12 00:21:13;;;;;;;13.17;10.17;;;5.50;99.90;;;;;;5034527;28;20472;-74
2021/01/12 00:23:39;;;;;;;12.03;9.43;;;5.60;99.90;;;;;;5031660;28;20442;-73
2021/01/12 00:26:08;;;;;;;16.87;10.27;;;5.60;99.90;;;;;;5030959;28;21023;-74
2021/01/12 00:28:37;;;;;;;15.53;10.40;;;5.60;99.90;;;;;;5032497;28;20422;-73
2021/01/12 00:31:05;;;;;;;11.40;10.30;;;5.60;99.90;;;;;;5033694;28;20494;-73
2021/01/12 00:33:32;;;;;;;11.10;9.77;;;5.60;99.90;;;;;;5034059;28;20843;-73
2021/01/12 00:36:04;;;;;;;13.60;10.10;;;5.60;99.90;;;;;;5034917;28;20403;-73
2021/01/12 00:38:29;;;;;;;15.83;10.40;;;5.70;99.90;;;;;;5034621;28;20403;-73
2021/01/12 00:40:55;;;;;;;11.67;8.90;;;5.60;99.90;;;;;;5033574;28;20468;-73
2021/01/12 00:43:23;;;;;;;12.00;9.70;;;5.60;99.90;;;;;;5033733;28;20195;-73
2021/01/12 00:45:48;;;;;;;11.83;9.70;;;5.60;99.90;;;;;;5034529;28;20182;-73
2021/01/12 00:48:14;;;;;;;10.40;8.23;;;5.70;99.90;;;;;;5034839;28;20517;-75
2021/01/12 00:50:39;;;;;;;11.17;8.03;;;5.70;99.90;;;;;;5032594;28;20229;-73
2021/01/12 00:53:06;;;;;;;13.00;9.53;;;5.70;99.90;;;;;;5034281;28;20227;-73
2021/01/12 00:55:31;;;;;;;12.83;10.03;;;5.60;99.90;;;;;;5034270;28;20480;-73
2021/01/12 00:57:57;;;;;;;11.33;8.73;;;5.50;99.90;;;;;;5033691;28;20676;-72
2021/01/12 01:00:23;;;;;;;12.37;9.43;;;5.60;99.90;;;;;;5032228;28;20274;-74
2021/01/12 01:02:48;;;;;;;11.50;10.30;;;5.50;99.90;;;;;;5017184;28;20211;-74
2021/01/12 01:05:14;;;;;;;12.20;9.70;;;5.50;99.90;;;;;;5025519;28;20551;-74
2021/01/12 01:07:39;;;;;;;12.03;10.33;;;5.50;99.90;;;;;;5034573;28;20232;-73
2021/01/12 01:10:06;;;;;;;16.73;9.50;;;5.60;99.90;;;;;;5031804;28;20183;-74
2021/01/12 01:12:31;;;;;;;15.53;9.87;;;5.60;99.90;;;;;;5034259;28;20167;-75
2021/01/12 01:14:57;;;;;;;12.87;9.20;;;5.60;99.90;;;;;;5030873;28;20458;-73
2021/01/12 01:17:22;;;;;;;12.00;8.80;;;5.60;99.90;;;;;;5033499;28;20255;-73
2021/01/12 01:19:48;;;;;;;10.80;7.87;;;5.60;99.90;;;;;;5033354;28;20589;-74
2021/01/12 01:22:13;;;;;;;13.37;9.07;;;5.60;99.90;;;;;;5031891;28;20175;-73
2021/01/12 01:24:39;;;;;;;12.77;8.93;;;5.60;99.90;;;;;;5035172;28;20204;-74
2021/01/12 01:27:05;;;;;;;12.87;7.87;;;5.60;99.90;;;;;;5028950;28;20182;-74
2021/01/12 01:29:30;;;;;;;10.17;8.63;;;5.60;99.90;;;;;;5028362;28;20253;-73
2021/01/12 01:31:56;;;;;;;12.40;7.60;;;5.60;99.90;;;;;;5032995;28;20286;-74
2021/01/12 01:34:21;;;;;;;9.77;7.57;;;5.60;99.90;;;;;;5034341;28;20195;-74
2021/01/12 01:36:47;;;;;;;8.37;7.50;;;5.60;99.90;;;;;;5034100;28;20545;-73
2021/01/12 01:39:13;;;;;;;9.40;7.40;;;5.60;99.90;;;;;;5032831;28;20229;-73
2021/01/12 01:41:38;;;;;;;8.37;7.33;;;5.60;99.90;;;;;;5031613;28;20203;-73
2021/01/12 01:44:07;;;;;;;8.77;7.23;;;5.50;99.90;;;;;;5033311;28;20188;-73
2021/01/12 01:46:32;;;;;;;11.40;7.77;;;5.50;99.90;;;;;;5033476;28;20175;-73
2021/01/12 01:48:58;;;;;;;9.00;6.40;;;5.50;99.90;;;;;;5032743;28;20411;-73
2021/01/12 01:51:25;;;;;;;6.57;5.80;;;5.50;99.90;;;;;;5031464;28;20222;-73
2021/01/12 01:53:51;;;;;;;8.20;6.27;;;5.60;99.90;;;;;;5031921;28;20668;-73
2021/01/12 01:56:17;;;;;;;6.43;5.80;;;5.60;99.90;;;;;;5030389;28;20458;-73
2021/01/12 01:58:43;;;;;;;7.37;5.60;;;5.60;99.90;;;;;;5033437;28;20526;-73
2021/01/12 02:01:10;;;;;;;6.90;4.90;;;5.60;99.90;;;;;;5041898;28;20265;-73
2021/01/12 02:03:41;;;;;;;6.40;4.40;;;5.60;99.90;;;;;;5031534;28;20489;-73
2021/01/12 02:06:24;;;;;;;6.13;4.37;;;5.60;99.90;;;;;;5022854;28;20430;-73
2021/01/12 02:09:29;;;;;;;4.20;3.80;;;5.60;99.90;;;;;;5031478;28;20995;-73
2021/01/12 02:12:01;;;;;;;5.93;5.33;;;5.70;99.90;;;;;;5032796;28;20781;-73
2021/01/12 02:14:29;;;;;;;4.63;3.93;;;5.60;99.90;;;;;;5033066;28;20515;-73
2021/01/12 02:16:56;;;;;;;6.73;4.07;;;5.60;99.90;;;;;;5032706;28;20558;-73
2021/01/12 02:19:25;;;;;;;5.03;4.53;;;5.70;99.90;;;;;;5031557;28;20426;-73
2021/01/12 02:21:55;;;;;;;4.40;4.00;;;5.70;99.90;;;;;;5030610;28;20434;-73
2021/01/12 02:24:21;;;;;;;3.90;3.60;;;5.70;99.90;;;;;;5031972;28;20947;-73
2021/01/12 02:26:47;;;;;;;5.50;4.57;;;5.80;99.90;;;;;;5032842;28;20465;-73
2021/01/12 02:29:13;;;;;;;5.00;4.13;;;5.80;99.90;;;;;;5027472;28;20834;-73
2021/01/12 02:31:39;;;;;;;4.90;3.40;;;5.80;99.90;;;;;;5027337;28;20462;-73
2021/01/12 02:34:09;;;;;;;4.40;4.00;;;5.80;99.90;;;;;;5032215;28;20438;-73
2021/01/12 02:36:37;;;;;;;3.70;3.40;;;5.80;99.90;;;;;;5032485;28;20472;-73
2021/01/12 02:39:03;;;;;;;3.57;3.30;;;5.90;99.90;;;;;;5030720;28;20434;-73
2021/01/12 02:41:33;;;;;;;3.37;3.10;;;5.90;99.90;;;;;;5029243;28;20472;-73
2021/01/12 02:44:00;;;;;;;4.17;3.77;;;5.90;99.90;;;;;;5032249;28;20433;-73
2021/01/12 02:46:25;;;;;;;2.90;2.60;;;5.90;99.90;;;;;;5029944;28;20433;-73
2021/01/12 02:48:52;;;;;;;3.80;2.93;;;6.00;99.90;;;;;;5031549;28;20504;-73
2021/01/12 02:51:17;;;;;;;3.80;3.33;;;6.00;99.90;;;;;;5030052;28;20175;-73
2021/01/12 02:53:43;;;;;;;3.60;3.20;;;6.00;99.90;;;;;;5030595;28;20434;-73
2021/01/12 02:56:08;;;;;;;4.00;3.20;;;6.00;99.90;;;;;;5032135;28;20526;-73
2021/01/12 02:58:34;;;;;;;4.30;3.80;;;6.00;99.90;;;;;;5032075;28;20641;-73
2021/01/12 03:01:01;;;;;;;3.00;2.67;;;6.00;99.90;;;;;;5031523;28;20245;-73
2021/01/12 03:03:26;;;;;;;4.87;3.03;;;6.10;99.90;;;;;;5032046;28;20271;-73
2021/01/12 03:05:53;;;;;;;3.83;2.57;;;6.00;99.90;;;;;;5030329;28;20842;-73
2021/01/12 03:08:18;;;;;;;2.90;2.70;;;6.00;99.90;;;;;;5031560;28;20278;-73
2021/01/12 03:10:44;;;;;;;2.37;2.17;;;6.00;99.90;;;;;;5031523;28;20875;-73
2021/01/12 03:13:10;;;;;;;2.83;2.30;;;6.10;99.90;;;;;;5032060;28;20200;-73
2021/01/12 03:15:37;;;;;;;2.40;2.20;;;6.10;99.90;;;;;;5031532;28;20258;-73
2021/01/12 03:18:03;;;;;;;2.50;2.30;;;6.10;99.90;;;;;;5031148;28;20167;-73
2021/01/12 03:20:28;;;;;;;2.87;2.03;;;6.10;99.90;;;;;;5030468;28;20499;-73
2021/01/12 03:22:54;;;;;;;2.83;2.40;;;6.10;99.90;;;;;;5031815;28;20438;-73
2021/01/12 03:25:20;;;;;;;3.20;2.40;;;6.10;99.90;;;;;;5031605;28;20202;-73
2021/01/12 03:27:49;;;;;;;2.73;2.53;;;6.10;99.90;;;;;;5031661;28;20171;-73
2021/01/12 03:30:16;;;;;;;4.33;3.10;;;6.00;99.90;;;;;;5031911;28;20412;-73
2021/01/12 03:32:42;;;;;;;2.97;2.30;;;6.10;99.90;;;;;;5031580;28;20820;-73
2021/01/12 03:35:11;;;;;;;2.70;2.50;;;6.10;99.90;;;;;;5030518;28;20422;-73
2021/01/12 03:37:37;;;;;;;3.10;2.60;;;6.10;99.90;;;;;;5032026;28;20450;-73
2021/01/12 03:40:05;;;;;;;2.53;2.33;;;6.10;99.90;;;;;;5031651;28;20982;-73
2021/01/12 03:42:30;;;;;;;3.07;2.57;;;6.10;99.90;;;;;;5031494;28;20495;-73
2021/01/12 03:44:56;;;;;;;2.50;2.30;;;6.10;99.90;;;;;;5031881;28;20556;-73
2021/01/12 03:47:22;;;;;;;3.03;2.60;;;6.10;99.90;;;;;;5031447;28;20575;-73
2021/01/12 03:49:47;;;;;;;3.10;2.57;;;6.10;99.90;;;;;;5031205;28;20700;-73
2021/01/12 03:52:13;;;;;;;4.30;2.47;;;6.10;99.90;;;;;;5029795;28;20178;-73
2021/01/12 03:54:38;;;;;;;2.60;2.40;;;6.10;99.90;;;;;;5031466;28;20191;-73
2021/01/12 03:57:04;;;;;;;2.80;2.60;;;6.10;99.90;;;;;;5031501;28;20540;-73
2021/01/12 03:59:30;;;;;;;3.20;2.03;;;6.00;99.90;;;;;;5031582;28;20171;-73
2021/01/12 04:01:55;;;;;;;4.00;2.70;;;6.00;99.90;;;;;;5030644;28;20178;-73
2021/01/12 04:04:21;;;;;;;2.80;2.60;;;6.00;99.90;;;;;;5029938;28;20195;-73
2021/01/12 04:06:47;;;;;;;4.60;2.33;;;6.00;99.90;;;;;;5031096;28;20180;-73
2021/01/12 04:09:12;;;;;;;3.27;2.90;;;6.00;99.90;;;;;;5031686;28;20164;-73
2021/01/12 04:11:38;;;;;;;3.37;2.63;;;6.00;99.90;;;;;;5031105;28;20181;-74
2021/01/12 04:14:06;;;;;;;4.10;2.80;;;6.00;99.90;;;;;;5030803;28;20200;-73
2021/01/12 04:16:32;;;;;;;2.67;2.33;;;6.00;99.90;;;;;;5031347;28;20659;-73
2021/01/12 04:18:58;;;;;;;3.07;2.80;;;6.10;99.90;;;;;;5033812;28;20907;-73
2021/01/12 04:21:24;;;;;;;2.83;2.57;;;6.00;99.90;;;;;;5034681;28;20503;-73
2021/01/12 04:23:50;;;;;;;3.13;2.40;;;6.10;99.90;;;;;;5034609;28;20970;-73
2021/01/12 04:26:15;;;;;;;2.40;2.07;;;6.00;99.90;;;;;;5035009;28;20178;-73
2021/01/12 04:28:41;;;;;;;2.90;2.70;;;6.10;99.90;;;;;;5034031;28;20167;-73
2021/01/12 04:31:07;;;;;;;2.30;2.20;;;6.00;99.90;;;;;;5034603;28;20465;-73
2021/01/12 04:33:32;;;;;;;3.33;2.53;;;6.00;99.90;;;;;;5034685;28;20249;-73
2021/01/12 04:35:58;;;;;;;2.07;1.97;;;6.00;99.90;;;;;;5034816;28;20186;-73
2021/01/12 04:38:23;;;;;;;2.27;2.07;;;6.10;99.90;;;;;;5034911;28;20164;-73
2021/01/12 04:40:49;;;;;;;2.30;2.10;;;6.00;99.90;;;;;;5034028;28;20200;-73
2021/01/12 04:43:15;;;;;;;2.50;2.30;;;6.00;99.90;;;;;;5034665;28;20187;-73
2021/01/12 04:45:40;;;;;;;2.47;2.27;;;6.00;99.90;;;;;;5034505;28;20175;-73
2021/01/12 04:48:07;;;;;;;2.30;2.10;;;6.00;99.90;;;;;;5034306;28;20566;-73
2021/01/12 04:50:33;;;;;;;3.07;2.87;;;6.00;99.90;;;;;;5032927;28;20175;-74
2021/01/12 04:52:59;;;;;;;2.17;1.97;;;6.00;99.90;;;;;;5034554;28;20414;-73
2021/01/12 04:55:25;;;;;;;2.93;2.00;;;6.00;99.90;;;;;;5034543;28;20413;-73
2021/01/12 04:57:51;;;;;;;3.20;1.70;;;6.00;99.90;;;;;;5032991;28;20180;-73
2021/01/12 05:00:28;;;;;;;3.60;2.43;;;6.00;99.90;;;;;;5034193;28;20195;-73
2021/01/12 05:03:04;;;;;;;1.90;1.77;;;6.00;99.90;;;;;;5033802;28;20414;-73
2021/01/12 05:05:31;;;;;;;3.53;2.20;;;6.00;99.90;;;;;;5034192;28;20505;-73
2021/01/12 05:08:01;;;;;;;2.23;1.67;;;6.00;99.90;;;;;;5033733;28;20414;-73
2021/01/12 05:10:27;;;;;;;2.57;1.60;;;6.10;99.90;;;;;;5034021;28;20418;-73
2021/01/12 05:12:54;;;;;;;2.10;1.90;;;6.00;99.90;;;;;;5033977;28;20491;-73
2021/01/12 05:15:21;;;;;;;7.87;2.47;;;6.00;99.90;;;;;;5034012;28;20543;-73
2021/01/12 05:17:49;;;;;;;2.67;2.47;;;6.10;99.90;;;;;;5033966;28;20418;-73
2021/01/12 05:20:23;;;;;;;2.00;1.80;;;6.00;99.90;;;;;;5034044;28;21135;-73
2021/01/12 05:23:05;;;;;;;3.63;1.73;;;6.10;99.90;;;;;;5034084;28;20402;-73
2021/01/12 05:25:33;;;;;;;1.60;1.50;;;6.10;99.90;;;;;;5013305;28;21018;-73
2021/01/12 05:28:02;;;;;;;1.90;1.70;;;6.10;99.90;;;;;;5029167;28;20418;-73
2021/01/12 05:30:27;;;;;;;1.80;1.63;;;6.00;99.90;;;;;;5031471;28;20431;-73
2021/01/12 05:32:54;;;;;;;2.60;1.60;;;6.00;99.90;;;;;;5033569;28;20426;-73
2021/01/12 05:35:20;;;;;;;2.20;2.07;;;6.00;99.90;;;;;;5033540;28;20177;-73
2021/01/12 05:37:46;;;;;;;2.03;1.87;;;6.10;99.90;;;;;;5026870;28;20421;-73
2021/01/12 05:40:13;;;;;;;2.20;2.00;;;6.10;99.90;;;;;;5033033;28;20861;-73
2021/01/12 05:42:39;;;;;;;2.10;1.90;;;6.10;99.90;;;;;;5032755;28;20458;-73
2021/01/12 05:45:06;;;;;;;1.80;1.70;;;6.10;99.90;;;;;;5030314;28;21355;-73
2021/01/12 05:47:32;;;;;;;5.50;2.43;;;6.10;99.90;;;;;;5032009;28;20552;-73
2021/01/12 05:50:00;;;;;;;1.90;1.80;;;6.10;99.90;;;;;;5033898;28;20407;-73
2021/01/12 05:52:26;;;;;;;2.43;1.80;;;6.10;99.90;;;;;;5032249;28;20183;-73
2021/01/12 05:55:08;;;;;;;1.83;1.70;;;6.10;99.90;;;;;;5031840;28;20990;-73
2021/01/12 05:57:39;;;;;;;1.80;1.70;;;6.10;99.90;;;;;;5030590;28;20437;-74
2021/01/12 06:00:06;;;;;;;2.37;2.00;;;6.10;99.90;;;;;;5033191;28;20450;-73
2021/01/12 06:02:33;;;;;;;2.70;2.20;;;6.10;99.90;;;;;;5032810;28;20410;-73
2021/01/12 06:04:59;;;;;;;2.73;2.07;;;6.20;99.90;;;;;;5033001;28;20430;-74
2021/01/12 06:07:27;;;;;;;1.60;1.50;;;6.20;99.90;;;;;;5032844;28;20424;-73
2021/01/12 06:09:54;;;;;;;2.40;2.30;;;6.10;99.90;;;;;;5033254;28;20413;-73
2021/01/12 06:12:25;;;;;;;2.73;2.17;;;6.20;99.90;;;;;;5032351;28;20461;-73
2021/01/12 06:14:52;;;;;;;2.03;1.93;;;6.10;99.90;;;;;;5032408;28;20442;-73
2021/01/12 06:17:17;;;;;;;2.03;1.73;;;6.20;99.90;;;;;;5031446;28;20416;-72
2021/01/12 06:19:47;;;;;;;2.70;2.27;;;6.20;99.90;;;;;;5032949;28;20414;-73
2021/01/12 06:22:20;;;;;;;1.50;1.40;;;6.20;99.90;;;;;;5032290;28;20213;-73
2021/01/12 06:24:51;;;;;;;1.70;1.60;;;6.20;99.90;;;;;;5031132;28;20520;-73
2021/01/12 06:27:20;;;;;;;1.97;1.70;;;6.20;99.90;;;;;;5032460;28;20904;-73
2021/01/12 06:29:47;;;;;;;1.67;1.53;;;6.10;99.90;;;;;;5032889;28;20490;-77
2021/01/12 06:32:17;;;;;;;3.23;1.70;;;6.20;99.90;;;;;;5032396;28;20422;-73
2021/01/12 06:34:43;;;;;;;2.80;2.30;;;6.20;99.90;;;;;;5031888;28;20446;-72
2021/01/12 06:37:11;;;;;;;3.90;2.00;;;6.20;99.90;;;;;;5032116;28;20418;-72
2021/01/12 06:39:42;;;;;;;2.43;1.63;;;6.20;99.90;;;;;;5032306;28;20175;-73
2021/01/12 06:42:10;;;;;;;3.13;1.83;;;6.20;99.90;;;;;;5031448;28;20422;-73
2021/01/12 06:44:37;;;;;;;2.20;1.80;;;6.30;99.90;;;;;;5030901;28;20434;-73
2021/01/12 06:47:09;;;;;;;2.30;1.60;;;6.30;99.90;;;;;;5032404;28;20425;-73
2021/01/12 06:49:35;;;;;;;4.03;2.40;;;6.30;99.90;;;;;;5032475;28;20465;-73
2021/01/12 06:52:04;;;;;;;2.40;1.80;;;6.30;99.90;;;;;;5031782;28;20425;-73
2021/01/12 06:54:41;;;;;;;1.90;1.67;;;6.30;99.90;;;;;;5032231;28;20509;-73
2021/01/12 06:57:09;;;;;;;2.60;1.80;;;6.30;99.90;;;;;;5031708;28;20429;-73
2021/01/12 06:59:39;;;;;;;2.23;2.10;;;6.40;99.90;;;;;;5032130;28;20410;-73
2021/01/12 07:02:24;;;;;;;1.50;1.40;;;6.30;99.90;;;;;;5031444;28;20788;-73
2021/01/12 07:05:08;;;;;;;3.20;2.33;;;6.30;99.90;;;;;;5027049;28;20458;-73
2021/01/12 07:07:45;;;;;;;1.83;1.73;;;6.30;99.90;;;;;;5030659;28;20914;-73
2021/01/12 07:10:21;;;;;;;2.83;2.27;;;6.40;99.90;;;;;;5032068;28;20939;-73
2021/01/12 07:12:49;;;;;;;2.10;1.90;;;6.40;99.90;;;;;;5031367;28;20449;-73
2021/01/12 07:15:17;;;;;;;4.30;1.90;;;6.40;99.90;;;;;;5030664;28;20919;-73
2021/01/12 07:17:54;;;;;;;3.40;1.27;;;6.40;99.90;;;;;;5031696;28;20418;-73
2021/01/12 07:20:27;;;;;;;2.03;1.80;;;6.50;99.90;;;;;;5031759;28;20508;-73
2021/01/12 07:22:56;;;;;;;2.90;1.83;;;6.40;99.90;;;;;;5027135;28;20426;-73
2021/01/12 07:25:30;;;;;;;3.50;1.63;;;6.40;99.90;;;;;;5030506;28;20453;-73
2021/01/12 07:28:06;;;;;;;2.10;1.90;;;6.40;99.90;;;;;;5028579;28;20429;-73
2021/01/12 07:30:34;;;;;;;1.63;1.50;;;6.50;99.90;;;;;;5044423;28;20472;-73
2021/01/12 07:33:02;;;;;;;1.50;1.30;;;6.50;99.90;;;;;;5029623;28;20434;-73
2021/01/12 07:35:29;;;;;;;1.57;1.30;;;6.50;99.90;;;;;;5030797;28;20453;-72
2021/01/12 07:37:55;;;;;;;1.97;1.70;;;6.60;99.90;;;;;;5031480;28;20475;-73
2021/01/12 07:40:22;;;;;;;2.67;1.63;;;6.50;99.90;;;;;;5031558;28;20454;-72
2021/01/12 07:42:50;;;;;;;1.50;1.40;;;6.50;99.90;;;;;;5031491;28;20418;-73
2021/01/12 07:45:17;;;;;;;2.40;1.60;;;6.60;99.90;;;;;;5031456;28;20422;-73
2021/01/12 07:47:43;;;;;;;3.10;1.60;;;6.60;99.90;;;;;;5031369;28;20430;-73
2021/01/12 07:50:10;;;;;;;1.33;1.07;;;6.60;99.90;;;;;;5031889;28;20472;-73
2021/01/12 07:52:35;;;;;;;6.37;1.50;;;6.60;99.90;;;;;;5031485;28;20468;-73
2021/01/12 07:55:01;;;;;;;1.83;1.63;;;6.70;99.90;;;;;;5035707;28;20429;-73
2021/01/12 07:57:27;;;;;;;2.00;1.10;;;6.70;99.90;;;;;;5034275;28;20248;-73
2021/01/12 07:59:54;;;;;;;2.43;1.37;;;6.70;99.90;;;;;;5035557;28;20207;-73
2021/01/12 08:02:23;;;;;;;1.50;1.13;;;6.70;99.90;;;;;;5026009;28;20426;-73
2021/01/12 08:04:49;;;;;;;1.10;1.00;;;6.70;99.90;;;;;;5035503;28;20421;-73
2021/01/12 08:07:25;;;;;;;1.60;1.20;;;6.80;99.90;;;;;;5035450;28;20406;-73
2021/01/12 08:09:57;;;;;;;2.23;1.20;;;6.80;99.90;;;;;;5035171;28;20175;-73
2021/01/12 08:12:24;;;;;;;2.60;1.40;;;6.80;99.90;;;;;;5034824;28;20422;-72
2021/01/12 08:14:50;;;;;;;2.33;1.50;;;6.80;99.90;;;;;;5035660;28;20802;-72
2021/01/12 08:17:25;;;;;;;2.90;1.30;;;6.90;99.90;;;;;;5035590;28;20828;-72
2021/01/12 08:19:52;;;;;;;2.10;1.70;;;6.90;99.90;;;;;;5035197;28;20436;-73
2021/01/12 08:22:18;;;;;;;4.37;1.20;;;6.80;99.90;;;;;;5033785;28;20417;-73
2021/01/12 08:24:45;;;;;;;2.13;1.93;;;7.00;99.90;;;;;;5034853;28;20437;-73
2021/01/12 08:27:12;;;;;;;1.60;1.50;;;6.90;99.90;;;;;;5034999;28;20172;-73
2021/01/12 08:29:38;;;;;;;1.90;1.60;;;7.00;99.90;;;;;;5035026;28;20418;-73
2021/01/12 08:32:08;;;;;;;3.60;2.73;;;7.00;99.90;;;;;;5033586;28;20480;-73
2021/01/12 08:35:20;;;;;;;7.73;3.27;;;7.00;99.90;;;;;;5034814;28;20183;-73
2021/01/12 08:37:47;;;;;;;1.90;1.70;;;7.00;99.90;;;;;;5028512;28;20527;-73
2021/01/12 08:40:14;;;;;;;4.07;1.93;;;7.00;99.90;;;;;;5034761;28;20536;-73
2021/01/12 08:42:41;;;;;;;2.50;2.20;;;7.00;99.90;;;;;;5034423;28;20476;-72
2021/01/12 08:45:14;;;;;;;2.27;2.07;;;7.00;99.90;;;;;;5033031;28;20438;-74
2021/01/12 08:47:41;;;;;;;2.50;2.30;;;7.10;99.90;;;;;;5034333;28;20536;-73
2021/01/12 08:50:08;;;;;;;2.00;1.87;;;7.00;99.90;;;;;;5034607;28;20442;-72
2021/01/12 08:52:37;;;;;;;2.47;2.27;;;7.00;99.90;;;;;;5034527;28;20405;-73
2021/01/12 08:55:14;;;;;;;2.70;2.10;;;7.00;99.90;;;;;;5034607;28;20492;-73
2021/01/12 08:57:39;;;;;;;3.47;2.00;;;7.10;99.90;;;;;;5034262;28;20429;-75
2021/01/12 09:00:14;;;;;;;4.63;1.97;;;7.10;99.90;;;;;;5034476;28;20873;-72
2021/01/12 09:02:40;;;;;;;3.53;2.13;;;7.10;99.90;;;;;;5034339;28;20163;-73
2021/01/12 09:05:07;;;;;;;3.87;2.30;;;7.20;99.90;;;;;;5033120;28;20429;-73
2021/01/12 09:07:33;;;;;;;3.03;2.10;;;7.20;99.90;;;;;;5034477;28;20572;-73
2021/01/12 09:09:59;;;;;;;5.93;3.03;;;7.30;99.90;;;;;;5034477;28;20407;-73
2021/01/12 09:12:25;;;;;;;3.07;2.30;;;7.30;99.90;;;;;;5033090;28;20786;-73
2021/01/12 09:14:51;;;;;;;2.70;1.97;;;7.30;99.90;;;;;;5033899;28;20521;-73
2021/01/12 09:17:19;;;;;;;2.80;1.97;;;7.30;99.90;;;;;;5034125;28;20418;-73
2021/01/12 09:19:49;;;;;;;3.30;2.37;;;7.40;99.90;;;;;;5032855;28;20414;-72
2021/01/12 09:22:17;;;;;;;2.17;2.07;;;7.40;99.90;;;;;;5034078;28;20517;-73
2021/01/12 09:24:49;;;;;;;2.67;2.40;;;7.50;99.90;;;;;;5031816;28;20840;-73
2021/01/12 09:27:28;;;;;;;5.37;2.00;;;7.40;99.90;;;;;;5033848;28;20480;-73
2021/01/12 09:29:54;;;;;;;3.50;2.20;;;7.50;99.90;;;;;;5032410;28;20426;-73
2021/01/12 09:32:27;;;;;;;1.80;1.70;;;7.50;99.90;;;;;;5033725;28;20402;-73
2021/01/12 09:34:53;;;;;;;2.40;2.13;;;7.50;99.90;;;;;;5033859;28;20772;-73
2021/01/12 09:37:19;;;;;;;2.70;2.50;;;7.60;99.90;;;;;;5032595;28;20421;-73
2021/01/12 09:39:57;;;;;;;3.60;2.67;;;7.70;99.90;;;;;;5033680;28;20406;-73
2021/01/12 09:42:25;;;;;;;2.20;2.10;;;7.70;99.90;;;;;;5033347;28;20422;-73
2021/01/12 09:44:54;;;;;;;4.70;3.03;;;7.70;99.90;;;;;;5027342;28;20450;-73
2021/01/12 09:47:20;;;;;;;4.93;2.50;;;7.80;99.90;;;;;;5033327;28;20535;-73
2021/01/12 09:49:47;;;;;;;2.53;2.33;;;7.90;99.90;;;;;;5033562;28;20498;-73
2021/01/12 09:52:15;;;;;;;2.27;2.10;;;7.90;99.90;;;;;;5033233;28;20775;-73
2021/01/12 09:54:46;;;;;;;1.70;1.60;;;8.00;99.90;;;;;;5033516;28;20422;-72
2021/01/12 09:57:13;;;;;;;2.70;2.10;;;8.00;99.90;;;;;;5032067;28;21097;-73
2021/01/12 09:59:39;;;;;;;2.43;2.00;;;8.10;99.90;;;;;;5033024;28;20418;-73
2021/01/12 10:02:05;;;;;;;4.43;1.73;;;8.20;99.90;;;;;;5033135;28;20409;-73
2021/01/12 10:04:30;;;;;;;2.10;1.90;;;8.20;99.90;;;;;;5033175;28;20418;-73
2021/01/12 10:07:00;;;;;;;2.83;1.93;;;8.20;99.90;;;;;;5033369;28;20179;-73
2021/01/12 10:09:27;;;;;;;1.80;1.70;;;8.10;99.90;;;;;;5033294;28;20636;-73
2021/01/12 10:11:54;;;;;;;4.83;2.30;;;8.10;99.90;;;;;;5031371;28;20521;-73
2021/01/12 10:14:21;;;;;;;2.60;1.90;;;8.20;99.90;;;;;;5033071;28;20437;-73
2021/01/12 10:16:47;;;;;;;2.33;2.00;;;8.30;99.90;;;;;;5032656;28;20896;-73
2021/01/12 10:19:13;;;;;;;2.30;2.10;;;8.30;99.90;;;;;;5031776;28;20442;-73
2021/01/12 10:21:39;;;;;;;2.80;2.50;;;8.30;99.90;;;;;;5032856;28;20457;-73
2021/01/12 10:24:05;;;;;;;3.40;3.00;;;8.30;99.90;;;;;;5031691;28;20434;-74
2021/01/12 10:26:32;;;;;;;3.33;2.57;;;8.30;99.90;;;;;;5032750;28;20629;-73
2021/01/12 10:28:58;;;;;;;3.30;2.50;;;8.40;99.90;;;;;;5032823;28;20497;-73
2021/01/12 10:31:24;;;;;;;2.57;2.37;;;8.40;99.90;;;;;;5032609;28;20411;-73
2021/01/12 10:33:50;;;;;;;3.50;2.93;;;8.40;99.90;;;;;;5032753;28;20440;-73
2021/01/12 10:36:18;;;;;;;3.77;2.60;;;8.40;99.90;;;;;;5032717;28;20406;-73
2021/01/12 10:38:45;;;;;;;8.00;5.10;;;8.40;99.90;;;;;;5032493;28;20457;-73
2021/01/12 10:41:11;;;;;;;5.23;4.20;;;8.40;99.90;;;;;;5032447;28;20462;-73
2021/01/12 10:43:37;;;;;;;5.63;4.13;;;8.40;99.90;;;;;;5031374;28;20426;-73
2021/01/12 10:46:03;;;;;;;7.60;5.60;;;8.40;99.90;;;;;;5032593;28;20417;-73
2021/01/12 10:48:29;;;;;;;9.00;4.20;;;8.40;99.90;;;;;;5031247;28;20195;-73
2021/01/12 10:50:54;;;;;;;6.90;5.40;;;8.40;99.90;;;;;;5032291;28;20749;-73
2021/01/12 10:53:20;;;;;;;7.13;4.70;;;8.40;99.90;;;;;;5032236;28;20313;-74
2021/01/12 10:55:47;;;;;;;6.83;5.37;;;8.30;99.90;;;;;;5032425;28;20629;-73
2021/01/12 10:58:13;;;;;;;6.23;5.37;;;8.30;99.90;;;;;;5032603;28;20414;-73
2021/01/12 11:00:39;;;;;;;9.10;6.63;;;8.30;99.90;;;;;;5032126;28;21009;-73
2021/01/12 11:03:08;;;;;;;12.43;6.47;;;8.30;99.90;;;;;;5032184;28;20419;-74
2021/01/12 11:05:34;;;;;;;11.03;5.70;;;8.30;99.90;;;;;;5032328;28;20425;-73
2021/01/12 11:08:01;;;;;;;7.60;5.20;;;8.30;99.90;;;;;;5031999;28;20446;-74
2021/01/12 11:10:26;;;;;;;8.13;6.60;;;8.40;99.90;;;;;;5031787;28;20429;-73
2021/01/12 11:12:52;;;;;;;12.13;4.40;;;8.40;99.90;;;;;;5032064;28;20407;-73
2021/01/12 11:15:18;;;;;;;7.10;4.60;;;8.40;99.90;;;;;;5032116;28;20186;-74
2021/01/12 11:17:47;;;;;;;6.83;3.97;;;8.40;99.90;;;;;;5032144;28;20186;-73
2021/01/12 11:20:18;;;;;;;5.40;4.17;;;8.50;99.90;;;;;;5030939;28;20611;-73
2021/01/12 11:22:43;;;;;;;9.03;5.43;;;8.50;99.90;;;;;;5030447;28;20449;-73
2021/01/12 11:25:10;;;;;;;5.50;5.00;;;8.60;99.90;;;;;;5030832;28;20500;-73
2021/01/12 11:27:36;;;;;;;6.90;4.90;;;8.60;99.90;;;;;;5030152;28;20174;-74
2021/01/12 11:30:05;;;;;;;6.60;4.00;;;8.50;99.90;;;;;;5032042;28;20410;-73
2021/01/12 11:32:34;;;;;;;4.73;4.33;;;8.60;99.90;;;;;;5030808;28;20469;-73
2021/01/12 11:35:00;;;;;;;5.70;4.70;;;8.70;99.90;;;;;;5031944;28;20441;-73
2021/01/12 11:37:26;;;;;;;8.30;6.50;;;8.70;99.90;;;;;;5031799;28;20426;-74
2021/01/12 11:39:52;;;;;;;6.47;4.07;;;8.70;99.90;;;;;;5031953;28;20171;-74
2021/01/12 11:42:18;;;;;;;3.60;3.30;;;8.80;99.90;;;;;;5031661;28;20528;-73
2021/01/12 11:44:44;;;;;;;2.40;2.10;;;8.80;99.90;;;;;;5031204;28;20468;-73
2021/01/12 11:47:10;;;;;;;2.47;2.17;;;8.90;99.90;;;;;;5031347;28;20190;-73
2021/01/12 11:49:36;;;;;;;3.13;2.40;;;8.70;99.90;;;;;;5031815;28;20201;-73
2021/01/12 11:52:07;;;;;;;3.90;2.50;;;8.60;99.90;;;;;;5030369;28;20414;-73
2021/01/12 11:54:33;;;;;;;4.87;3.20;;;8.50;99.90;;;;;;5030738;28;20445;-74
2021/01/12 11:56:59;;;;;;;4.13;3.20;;;8.30;99.90;;;;;;5034588;28;20996;-73
2021/01/12 11:59:25;;;;;;;4.77;4.00;;;8.20;99.90;;;;;;5051588;28;20914;-74
2021/01/12 12:01:53;;;;;;;7.43;3.80;;;8.20;99.90;;;;;;5035287;28;20458;-74
2021/01/12 12:04:19;;;;;;;3.20;3.00;;;8.10;99.90;;;;;;5031708;28;20471;-73
2021/01/12 12:06:53;;;;;;;5.17;3.60;;;8.00;99.90;;;;;;5031660;28;20402;-73
2021/01/12 12:09:19;;;;;;;4.10;3.23;;;8.00;99.90;;;;;;5031249;28;20414;-73
2021/01/12 12:11:46;;;;;;;5.17;3.87;;;7.90;99.90;;;;;;5029908;28;20433;-73
2021/01/12 12:14:13;;;;;;;3.13;2.83;;;7.80;99.90;;;;;;5031536;28;20849;-73
2021/01/12 12:16:42;;;;;;;9.87;2.50;;;7.60;99.90;;;;;;5031702;28;20406;-75
2021/01/12 12:19:08;;;;;;;2.10;1.70;;;7.50;99.90;;;;;;5032484;28;20752;-73
2021/01/12 12:21:47;;;;;;;4.00;1.43;;;7.40;99.90;;;;;;5030856;28;20458;-73
2021/01/12 12:24:16;;;;;;;1.30;1.20;;;7.30;99.90;;;;;;5031413;28;20430;-73
2021/01/12 12:26:43;;;;;;;1.53;1.43;;;7.30;99.90;;;;;;5030865;28;20828;-73
2021/01/12 12:29:09;;;;;;;1.80;1.13;;;7.20;99.90;;;;;;5031412;28;20488;-73
2021/01/12 12:31:34;;;;;;;4.50;1.23;;;7.20;99.90;;;;;;5029824;28;20935;-73
2021/01/12 12:34:01;;;;;;;1.50;1.20;;;7.20;99.90;;;;;;5031242;28;20199;-74
2021/01/12 12:36:26;;;;;;;1.53;1.10;;;7.20;99.90;;;;;;5030060;28;20258;-73
2021/01/12 12:38:52;;;;;;;1.73;1.30;;;7.20;99.90;;;;;;5031970;28;20963;-73
2021/01/12 12:41:18;;;;;;;5.20;1.37;;;7.20;99.90;;;;;;5034633;28;20283;-73
2021/01/12 12:43:45;;;;;;;1.23;1.10;;;7.20;99.90;;;;;;5038415;28;20722;-73
2021/01/12 12:46:12;;;;;;;3.67;1.20;;;7.20;99.90;;;;;;5034818;28;20445;-73
2021/01/12 12:48:38;;;;;;;1.40;1.00;;;7.20;99.90;;;;;;5034538;28;20445;-73
2021/01/12 12:51:08;;;;;;;3.60;1.30;;;7.20;99.90;;;;;;5034421;28;20402;-73
2021/01/12 12:53:36;;;;;;;1.50;1.40;;;7.20;99.90;;;;;;5034337;28;20596;-72
2021/01/12 12:56:02;;;;;;;2.33;1.47;;;7.20;99.90;;;;;;5034729;28;20418;-73
2021/01/12 12:58:31;;;;;;;2.83;1.60;;;7.30;99.90;;;;;;5034644;28;20410;-73